Fairmount, Georgia
Current Conditions -  °F | °C
As of 11:15 AM on Monday 26 Jan 2015 (Local Time) from KCNI Reporting Station
Overcast Overcast  
Wind Chill: 33°   Ceiling: 1600
Heat Index: 41°   Visibility: 10mi
Dew Point: 32°   Wind: 16mph
Humidity: 70%   Direction: 310°NW
Pressure: 29.84"   Gusts: 25mph
Location:  34.44°N, 84.7°W
Report Text: KCNI 261615Z AUTO 31014G22KT 280V340 10SM OVC016 05/00 A2984 RMK AO2
Loading
Personal Weather Stations






























Interactive Weather Map New forecast layout! Learn more

10-Day Weather Forecast

Advertisements
Track Severe Weather on mobile